WZZ6989 ENAL-EPGD
Flight info
| Callsign | WZZ6989 |
|---|---|
| Flight time | 1h 39m |
| Altitude | 33000 |
| Route | GIGIR DCT VATEX DCT PENOR N133 DOMAG T240 OGDAV |
| Aircraft | A321/M-SDE1E2E3FGIJ1J4RWXY/LB1 |
Departure
| Time | 2026-04-23 12:09 |
|---|---|
| Airport | Ålesund Airport (ENAL) |
Arrival
| Time | 2026-04-23 13:48 |
|---|---|
| Airport | Gdańsk Lech Wałęsa Airport (EPGD) |
| Time | Latitude | Longitude | Altitude | Speed | Heading |
|---|---|---|---|---|---|
| 2026-04-23 11:24 | 62.55881 | 6.11298 | 82 ft | 0 kts | 153° |
| 2026-04-23 12:00 | 62.55884 | 6.11300 | 79 ft | 3 kts | 133° |
| 2026-04-23 12:00 | 62.55896 | 6.11283 | 75 ft | 3 kts | 150° |
| 2026-04-23 12:00 | 62.55910 | 6.11259 | 90 ft | 3 kts | 117° |
| 2026-04-23 12:01 | 62.55915 | 6.11224 | 93 ft | 3 kts | 78° |
| 2026-04-23 12:01 | 62.55910 | 6.11190 | 83 ft | 1 kts | 65° |
| 2026-04-23 12:01 | 62.55909 | 6.11186 | 83 ft | 0 kts | 65° |
| 2026-04-23 12:04 | 62.55916 | 6.11216 | 82 ft | 6 kts | 65° |
| 2026-04-23 12:04 | 62.55952 | 6.11343 | 81 ft | 11 kts | 41° |
| 2026-04-23 12:05 | 62.56012 | 6.11428 | 82 ft | 11 kts | 46° |
| 2026-04-23 12:05 | 62.56050 | 6.11586 | 83 ft | 13 kts | 66° |
| 2026-04-23 12:05 | 62.56088 | 6.11777 | 68 ft | 15 kts | 65° |
| 2026-04-23 12:05 | 62.56135 | 6.11984 | 74 ft | 16 kts | 64° |
| 2026-04-23 12:06 | 62.56196 | 6.12114 | 68 ft | 12 kts | 22° |
| 2026-04-23 12:06 | 62.56270 | 6.12134 | 73 ft | 9 kts | 6° |
| 2026-04-23 12:06 | 62.56369 | 6.12509 | 56 ft | 21 kts | 65° |
| 2026-04-23 12:07 | 62.56426 | 6.12780 | 50 ft | 15 kts | 65° |
| 2026-04-23 12:07 | 62.56439 | 6.12941 | 48 ft | 10 kts | 94° |
| 2026-04-23 12:07 | 62.56443 | 6.13006 | 49 ft | 2 kts | 62° |
| 2026-04-23 12:07 | 62.56465 | 6.12990 | 48 ft | 5 kts | 300° |
| 2026-04-23 12:08 | 62.56458 | 6.12922 | 44 ft | 5 kts | 245° |
| 2026-04-23 12:08 | 62.56446 | 6.12866 | 45 ft | 12 kts | 245° |
| 2026-04-23 12:08 | 62.56265 | 6.12041 | 66 ft | 107 kts | 244° |
| 2026-04-23 12:08 | 62.55843 | 6.10127 | 381 ft | 158 kts | 243° |
| 2026-04-23 12:09 | 62.55379 | 6.08029 | 1681 ft | 152 kts | 245° |
| 2026-04-23 12:09 | 62.54897 | 6.05845 | 2112 ft | 170 kts | 245° |
| 2026-04-23 12:09 | 62.54360 | 6.03433 | 2510 ft | 186 kts | 245° |
| 2026-04-23 12:09 | 62.53769 | 6.00743 | 2828 ft | 210 kts | 245° |
| 2026-04-23 12:10 | 62.53117 | 5.97734 | 3377 ft | 229 kts | 246° |
| 2026-04-23 12:10 | 62.52432 | 5.94571 | 4242 ft | 236 kts | 248° |
| 2026-04-23 12:10 | 62.51715 | 5.91306 | 5069 ft | 245 kts | 249° |
| 2026-04-23 12:10 | 62.50839 | 5.88093 | 5917 ft | 256 kts | 233° |
| 2026-04-23 12:11 | 62.49292 | 5.85936 | 6707 ft | 279 kts | 201° |
| 2026-04-23 12:11 | 62.47296 | 5.85859 | 7423 ft | 300 kts | 167° |
| 2026-04-23 12:11 | 62.45337 | 5.87528 | 8262 ft | 305 kts | 155° |
| 2026-04-23 12:11 | 62.43658 | 5.90308 | 9043 ft | 311 kts | 125° |
| 2026-04-23 12:12 | 62.42751 | 5.94499 | 9811 ft | 309 kts | 98° |
| 2026-04-23 12:12 | 62.42632 | 5.99082 | 10605 ft | 305 kts | 77° |
| 2026-04-23 12:12 | 62.43206 | 6.03489 | 11068 ft | 314 kts | 61° |
| 2026-04-23 12:12 | 62.44113 | 6.07945 | 11404 ft | 333 kts | 61° |
| 2026-04-23 12:13 | 62.45073 | 6.12575 | 12036 ft | 340 kts | 61° |
| 2026-04-23 12:13 | 62.46048 | 6.17274 | 12767 ft | 346 kts | 61° |
| 2026-04-23 12:13 | 62.47034 | 6.22043 | 13504 ft | 351 kts | 62° |
| 2026-04-23 12:13 | 62.48031 | 6.26901 | 14235 ft | 356 kts | 62° |
| 2026-04-23 12:14 | 62.48781 | 6.32059 | 14856 ft | 366 kts | 76° |
| 2026-04-23 12:14 | 62.48921 | 6.37606 | 15498 ft | 375 kts | 92° |
| 2026-04-23 12:14 | 62.48407 | 6.43170 | 16159 ft | 381 kts | 107° |
| 2026-04-23 12:14 | 62.47259 | 6.48369 | 16821 ft | 386 kts | 121° |
| 2026-04-23 12:15 | 62.45824 | 6.53307 | 17519 ft | 389 kts | 121° |
| 2026-04-23 12:15 | 62.44383 | 6.58280 | 18207 ft | 392 kts | 121° |
| 2026-04-23 12:15 | 62.42933 | 6.63304 | 18857 ft | 396 kts | 121° |
| 2026-04-23 12:15 | 62.41475 | 6.68364 | 19457 ft | 398 kts | 121° |
| 2026-04-23 12:16 | 62.40006 | 6.73448 | 20074 ft | 401 kts | 121° |
| 2026-04-23 12:16 | 62.38527 | 6.78558 | 20695 ft | 403 kts | 121° |
| 2026-04-23 12:16 | 62.37036 | 6.83699 | 21292 ft | 406 kts | 121° |
| 2026-04-23 12:16 | 62.35535 | 6.88861 | 21898 ft | 408 kts | 121° |
| 2026-04-23 12:17 | 62.34019 | 6.94052 | 22506 ft | 411 kts | 121° |
| 2026-04-23 12:17 | 62.32487 | 6.99270 | 23112 ft | 414 kts | 122° |
| 2026-04-23 12:17 | 62.30943 | 7.04515 | 23710 ft | 416 kts | 121° |
| 2026-04-23 12:17 | 62.29390 | 7.09797 | 24226 ft | 419 kts | 121° |
| 2026-04-23 12:18 | 62.27827 | 7.15109 | 24692 ft | 422 kts | 122° |
| 2026-04-23 12:18 | 62.26248 | 7.20453 | 25150 ft | 425 kts | 122° |
| 2026-04-23 12:18 | 62.24653 | 7.25816 | 25576 ft | 429 kts | 122° |
| 2026-04-23 12:18 | 62.23038 | 7.31231 | 26021 ft | 432 kts | 122° |
| 2026-04-23 12:19 | 62.21307 | 7.36520 | 26447 ft | 435 kts | 130° |
| 2026-04-23 12:19 | 62.19175 | 7.41143 | 26862 ft | 438 kts | 141° |
| 2026-04-23 12:19 | 62.16821 | 7.45179 | 27267 ft | 441 kts | 142° |
| 2026-04-23 12:19 | 62.14385 | 7.49337 | 27705 ft | 444 kts | 142° |
| 2026-04-23 12:20 | 62.11965 | 7.53486 | 28119 ft | 447 kts | 142° |
| 2026-04-23 12:20 | 62.09533 | 7.57664 | 28524 ft | 450 kts | 142° |
| 2026-04-23 12:20 | 62.07117 | 7.61802 | 28925 ft | 453 kts | 142° |
| 2026-04-23 12:20 | 62.04612 | 7.66064 | 29317 ft | 456 kts | 142° |
| 2026-04-23 12:21 | 62.02154 | 7.70238 | 29692 ft | 459 kts | 142° |
| 2026-04-23 12:21 | 61.99614 | 7.74539 | 30076 ft | 462 kts | 142° |
| 2026-04-23 12:21 | 61.97083 | 7.78816 | 30451 ft | 465 kts | 142° |
| 2026-04-23 12:21 | 61.94575 | 7.83043 | 30759 ft | 468 kts | 142° |
| 2026-04-23 12:22 | 61.92015 | 7.87352 | 31063 ft | 471 kts | 142° |
| 2026-04-23 12:22 | 61.89437 | 7.91683 | 31365 ft | 474 kts | 142° |
| 2026-04-23 12:22 | 61.86849 | 7.96032 | 31678 ft | 477 kts | 142° |
| 2026-04-23 12:22 | 61.84239 | 8.00399 | 31997 ft | 479 kts | 143° |
| 2026-04-23 12:23 | 61.81618 | 8.04789 | 32317 ft | 482 kts | 143° |
| 2026-04-23 12:23 | 61.78983 | 8.09187 | 32717 ft | 482 kts | 143° |
| 2026-04-23 12:23 | 61.76348 | 8.13574 | 33166 ft | 482 kts | 143° |
| 2026-04-23 12:23 | 61.73716 | 8.17951 | 33295 ft | 480 kts | 143° |
| 2026-04-23 12:24 | 61.71135 | 8.22244 | 33314 ft | 464 kts | 143° |
| 2026-04-23 12:24 | 61.68629 | 8.26398 | 33301 ft | 454 kts | 143° |
| 2026-04-23 12:24 | 61.63674 | 8.34520 | 33288 ft | 450 kts | 143° |
| 2026-04-23 12:25 | 61.58721 | 8.42605 | 33278 ft | 451 kts | 143° |
| 2026-04-23 12:25 | 61.53775 | 8.50704 | 33265 ft | 451 kts | 143° |
| 2026-04-23 12:26 | 61.48817 | 8.58781 | 33256 ft | 452 kts | 143° |
| 2026-04-23 12:26 | 61.43847 | 8.66834 | 33246 ft | 452 kts | 143° |
| 2026-04-23 12:27 | 61.38866 | 8.74852 | 33237 ft | 452 kts | 144° |
| 2026-04-23 12:27 | 61.33866 | 8.82847 | 33232 ft | 453 kts | 144° |
| 2026-04-23 12:28 | 61.28862 | 8.90809 | 33228 ft | 453 kts | 143° |
| 2026-04-23 12:28 | 61.23865 | 8.98799 | 33220 ft | 453 kts | 143° |
| 2026-04-23 12:29 | 61.18863 | 9.06761 | 33222 ft | 453 kts | 144° |
| 2026-04-23 12:29 | 61.13842 | 9.14665 | 33224 ft | 453 kts | 144° |
| 2026-04-23 12:30 | 61.08832 | 9.22564 | 33223 ft | 453 kts | 144° |
| 2026-04-23 12:30 | 61.03807 | 9.30419 | 33222 ft | 453 kts | 144° |
| 2026-04-23 12:31 | 60.99634 | 9.36925 | 33215 ft | 453 kts | 144° |
| 2026-04-23 12:31 | 60.94612 | 9.44742 | 33213 ft | 452 kts | 144° |
| 2026-04-23 12:32 | 60.89586 | 9.52546 | 33205 ft | 452 kts | 144° |
| 2026-04-23 12:32 | 60.84559 | 9.60298 | 33201 ft | 452 kts | 144° |
| 2026-04-23 12:33 | 60.79521 | 9.68026 | 33194 ft | 452 kts | 144° |
| 2026-04-23 12:33 | 60.74489 | 9.75739 | 33191 ft | 452 kts | 144° |
| 2026-04-23 12:34 | 60.69443 | 9.83405 | 33188 ft | 452 kts | 145° |
| 2026-04-23 12:34 | 60.64398 | 9.91059 | 33185 ft | 452 kts | 145° |
| 2026-04-23 12:35 | 60.59359 | 9.98702 | 33182 ft | 452 kts | 145° |
| 2026-04-23 12:35 | 60.54338 | 10.06270 | 33181 ft | 452 kts | 145° |
| 2026-04-23 12:36 | 60.49284 | 10.13847 | 33182 ft | 452 kts | 145° |
| 2026-04-23 12:36 | 60.44222 | 10.21419 | 33177 ft | 452 kts | 145° |
| 2026-04-23 12:37 | 60.39151 | 10.28962 | 33172 ft | 453 kts | 145° |
| 2026-04-23 12:37 | 60.34060 | 10.36474 | 33172 ft | 453 kts | 146° |
| 2026-04-23 12:38 | 60.28967 | 10.43986 | 33170 ft | 454 kts | 145° |
| 2026-04-23 12:38 | 60.23871 | 10.51493 | 33167 ft | 454 kts | 145° |
| 2026-04-23 12:39 | 60.18764 | 10.58990 | 33163 ft | 454 kts | 145° |
| 2026-04-23 12:39 | 60.13648 | 10.66461 | 33169 ft | 455 kts | 146° |
| 2026-04-23 12:40 | 60.08519 | 10.73898 | 33170 ft | 455 kts | 146° |
| 2026-04-23 12:40 | 60.03386 | 10.81329 | 33169 ft | 455 kts | 145° |
| 2026-04-23 12:41 | 59.98250 | 10.88763 | 33173 ft | 456 kts | 146° |
| 2026-04-23 12:41 | 59.93099 | 10.96164 | 33174 ft | 456 kts | 146° |
| 2026-04-23 12:42 | 59.87941 | 11.03531 | 33179 ft | 457 kts | 146° |
| 2026-04-23 12:42 | 59.82770 | 11.10881 | 33185 ft | 457 kts | 146° |
| 2026-04-23 12:43 | 59.77592 | 11.18223 | 33185 ft | 457 kts | 146° |
| 2026-04-23 12:43 | 59.72409 | 11.25541 | 33190 ft | 458 kts | 146° |
| 2026-04-23 12:44 | 59.67216 | 11.32857 | 33192 ft | 458 kts | 146° |
| 2026-04-23 12:44 | 59.62021 | 11.40158 | 33195 ft | 458 kts | 146° |
| 2026-04-23 12:45 | 59.56811 | 11.47430 | 33193 ft | 459 kts | 146° |
| 2026-04-23 12:45 | 59.51594 | 11.54694 | 33196 ft | 459 kts | 145° |
| 2026-04-23 12:46 | 59.46379 | 11.61925 | 33189 ft | 459 kts | 146° |
| 2026-04-23 12:46 | 59.41153 | 11.69159 | 33195 ft | 460 kts | 146° |
| 2026-04-23 12:47 | 59.35911 | 11.76376 | 33192 ft | 460 kts | 146° |
| 2026-04-23 12:47 | 59.30766 | 11.83692 | 33192 ft | 460 kts | 140° |
| 2026-04-23 12:48 | 59.25886 | 11.91798 | 33189 ft | 461 kts | 140° |
| 2026-04-23 12:48 | 59.20990 | 11.99885 | 33194 ft | 461 kts | 140° |
| 2026-04-23 12:49 | 59.16082 | 12.07943 | 33190 ft | 461 kts | 140° |
| 2026-04-23 12:49 | 59.11161 | 12.15978 | 33185 ft | 462 kts | 140° |
| 2026-04-23 12:50 | 59.06229 | 12.23992 | 33195 ft | 462 kts | 140° |
| 2026-04-23 12:50 | 59.01293 | 12.32009 | 33186 ft | 463 kts | 140° |
| 2026-04-23 12:51 | 58.96344 | 12.40006 | 33185 ft | 463 kts | 140° |
| 2026-04-23 12:51 | 58.91386 | 12.47976 | 33189 ft | 463 kts | 140° |
| 2026-04-23 12:52 | 58.86426 | 12.55944 | 33188 ft | 464 kts | 140° |
| 2026-04-23 12:52 | 58.81458 | 12.63896 | 33189 ft | 464 kts | 140° |
| 2026-04-23 12:53 | 58.76479 | 12.71828 | 33190 ft | 464 kts | 140° |
| 2026-04-23 12:53 | 58.71492 | 12.79731 | 33177 ft | 465 kts | 140° |
| 2026-04-23 12:54 | 58.66497 | 12.87620 | 33179 ft | 465 kts | 140° |
| 2026-04-23 12:54 | 58.61491 | 12.95498 | 33181 ft | 465 kts | 140° |
| 2026-04-23 12:55 | 58.56477 | 13.03339 | 33181 ft | 465 kts | 140° |
| 2026-04-23 12:55 | 58.51461 | 13.11169 | 33184 ft | 465 kts | 140° |
| 2026-04-23 12:56 | 58.46469 | 13.18930 | 33187 ft | 466 kts | 140° |
| 2026-04-23 12:56 | 58.41435 | 13.26726 | 33191 ft | 466 kts | 140° |
| 2026-04-23 12:57 | 58.36404 | 13.34509 | 33191 ft | 466 kts | 140° |
| 2026-04-23 12:57 | 58.31367 | 13.42270 | 33193 ft | 466 kts | 140° |
| 2026-04-23 12:58 | 58.26317 | 13.50000 | 33193 ft | 466 kts | 140° |
| 2026-04-23 12:58 | 58.21267 | 13.57705 | 33193 ft | 466 kts | 140° |
| 2026-04-23 12:59 | 58.16208 | 13.65389 | 33191 ft | 466 kts | 140° |
| 2026-04-23 12:59 | 58.11145 | 13.73045 | 33191 ft | 466 kts | 140° |
| 2026-04-23 13:00 | 58.06080 | 13.80698 | 33184 ft | 466 kts | 140° |
| 2026-04-23 13:00 | 58.01012 | 13.88333 | 33178 ft | 466 kts | 140° |
| 2026-04-23 13:01 | 57.95934 | 13.95933 | 33166 ft | 466 kts | 140° |
| 2026-04-23 13:01 | 57.90848 | 14.03514 | 33155 ft | 466 kts | 140° |
| 2026-04-23 13:02 | 57.85758 | 14.11087 | 33152 ft | 466 kts | 140° |
| 2026-04-23 13:02 | 57.80667 | 14.18635 | 33152 ft | 466 kts | 140° |
| 2026-04-23 13:03 | 57.75566 | 14.26158 | 33153 ft | 467 kts | 140° |
| 2026-04-23 13:03 | 57.70460 | 14.33656 | 33149 ft | 467 kts | 140° |
| 2026-04-23 13:04 | 57.65347 | 14.41141 | 33151 ft | 467 kts | 140° |
| 2026-04-23 13:04 | 57.60240 | 14.48609 | 33169 ft | 467 kts | 140° |
| 2026-04-23 13:05 | 57.55154 | 14.56015 | 33162 ft | 467 kts | 140° |
| 2026-04-23 13:05 | 57.50030 | 14.63428 | 33163 ft | 467 kts | 140° |
| 2026-04-23 13:06 | 57.42341 | 14.74515 | 33156 ft | 466 kts | 140° |
| 2026-04-23 13:07 | 57.37206 | 14.81889 | 33153 ft | 466 kts | 140° |
| 2026-04-23 13:07 | 57.32069 | 14.89247 | 33145 ft | 467 kts | 140° |
| 2026-04-23 13:08 | 57.26932 | 14.96578 | 33147 ft | 467 kts | 140° |
| 2026-04-23 13:08 | 57.21781 | 15.03876 | 33143 ft | 467 kts | 140° |
| 2026-04-23 13:09 | 57.16624 | 15.11166 | 33138 ft | 467 kts | 140° |
| 2026-04-23 13:09 | 57.11471 | 15.18458 | 33137 ft | 467 kts | 140° |
| 2026-04-23 13:10 | 57.06304 | 15.25728 | 33136 ft | 467 kts | 140° |
| 2026-04-23 13:10 | 57.01128 | 15.32958 | 33133 ft | 468 kts | 140° |
| 2026-04-23 13:11 | 56.95944 | 15.40183 | 33133 ft | 468 kts | 140° |
| 2026-04-23 13:11 | 56.90752 | 15.47394 | 33129 ft | 468 kts | 140° |
| 2026-04-23 13:12 | 56.85562 | 15.54585 | 33127 ft | 468 kts | 140° |
| 2026-04-23 13:12 | 56.80396 | 15.61734 | 33122 ft | 469 kts | 140° |
| 2026-04-23 13:13 | 56.75192 | 15.68900 | 33119 ft | 469 kts | 140° |
| 2026-04-23 13:13 | 56.69968 | 15.76040 | 33124 ft | 469 kts | 140° |
| 2026-04-23 13:14 | 56.64744 | 15.83150 | 33127 ft | 469 kts | 140° |
| 2026-04-23 13:14 | 56.59517 | 15.90263 | 33127 ft | 469 kts | 140° |
| 2026-04-23 13:15 | 56.54291 | 15.97355 | 33128 ft | 469 kts | 140° |
| 2026-04-23 13:15 | 56.49901 | 16.03290 | 33127 ft | 469 kts | 140° |
| 2026-04-23 13:16 | 56.43813 | 16.11503 | 33132 ft | 470 kts | 139° |
| 2026-04-23 13:16 | 56.38568 | 16.18545 | 33140 ft | 470 kts | 140° |
| 2026-04-23 13:17 | 56.33315 | 16.25564 | 33151 ft | 470 kts | 139° |
| 2026-04-23 13:17 | 56.28062 | 16.32569 | 33158 ft | 470 kts | 139° |
| 2026-04-23 13:18 | 56.22796 | 16.39551 | 33161 ft | 470 kts | 139° |
| 2026-04-23 13:18 | 56.18413 | 16.45334 | 33166 ft | 470 kts | 139° |
| 2026-04-23 13:19 | 56.13144 | 16.52286 | 33161 ft | 470 kts | 139° |
| 2026-04-23 13:19 | 56.07873 | 16.59223 | 33166 ft | 470 kts | 139° |
| 2026-04-23 13:20 | 56.02586 | 16.66149 | 33163 ft | 470 kts | 139° |
| 2026-04-23 13:20 | 55.97298 | 16.73054 | 33166 ft | 470 kts | 139° |
| 2026-04-23 13:21 | 55.92010 | 16.79936 | 33170 ft | 470 kts | 139° |
| 2026-04-23 13:21 | 55.86715 | 16.86799 | 33170 ft | 470 kts | 139° |
| 2026-04-23 13:22 | 55.81422 | 16.93639 | 33163 ft | 470 kts | 139° |
| 2026-04-23 13:22 | 55.76117 | 17.00471 | 33172 ft | 471 kts | 139° |
| 2026-04-23 13:23 | 55.70809 | 17.07280 | 33170 ft | 471 kts | 139° |
| 2026-04-23 13:23 | 55.65496 | 17.14061 | 33172 ft | 471 kts | 140° |
| 2026-04-23 13:24 | 55.59670 | 17.19558 | 33174 ft | 477 kts | 152° |
| 2026-04-23 13:24 | 55.56643 | 17.21984 | 33056 ft | 478 kts | 152° |
| 2026-04-23 13:24 | 55.53653 | 17.24384 | 32502 ft | 478 kts | 152° |
| 2026-04-23 13:24 | 55.50598 | 17.26844 | 32000 ft | 476 kts | 152° |
| 2026-04-23 13:25 | 55.47627 | 17.29242 | 31497 ft | 474 kts | 152° |
| 2026-04-23 13:25 | 55.44631 | 17.31663 | 30987 ft | 472 kts | 152° |
| 2026-04-23 13:25 | 55.41651 | 17.34066 | 30491 ft | 471 kts | 152° |
| 2026-04-23 13:25 | 55.38676 | 17.36456 | 29969 ft | 469 kts | 152° |
| 2026-04-23 13:26 | 55.35710 | 17.38825 | 29488 ft | 465 kts | 152° |
| 2026-04-23 13:26 | 55.32776 | 17.41159 | 29034 ft | 462 kts | 152° |
| 2026-04-23 13:26 | 55.29860 | 17.43473 | 28576 ft | 458 kts | 152° |
| 2026-04-23 13:26 | 55.26966 | 17.45770 | 28115 ft | 455 kts | 152° |
| 2026-04-23 13:27 | 55.24086 | 17.48054 | 27656 ft | 453 kts | 152° |
| 2026-04-23 13:27 | 55.21222 | 17.50325 | 27239 ft | 450 kts | 152° |
| 2026-04-23 13:27 | 55.18374 | 17.52569 | 26842 ft | 447 kts | 153° |
| 2026-04-23 13:27 | 55.15544 | 17.54759 | 26439 ft | 444 kts | 153° |
| 2026-04-23 13:28 | 55.12716 | 17.56922 | 26014 ft | 443 kts | 153° |
| 2026-04-23 13:28 | 55.09903 | 17.59063 | 25581 ft | 440 kts | 153° |
| 2026-04-23 13:28 | 55.07105 | 17.61189 | 25166 ft | 438 kts | 153° |
| 2026-04-23 13:28 | 55.04307 | 17.63316 | 24735 ft | 437 kts | 153° |
| 2026-04-23 13:29 | 55.01529 | 17.65432 | 24299 ft | 435 kts | 154° |
| 2026-04-23 13:29 | 54.98812 | 17.67704 | 23853 ft | 430 kts | 146° |
| 2026-04-23 13:29 | 54.96392 | 17.70686 | 23385 ft | 422 kts | 134° |
| 2026-04-23 13:29 | 54.94337 | 17.74236 | 22962 ft | 414 kts | 128° |
| 2026-04-23 13:30 | 54.92368 | 17.77851 | 22541 ft | 409 kts | 128° |
| 2026-04-23 13:30 | 54.90409 | 17.81413 | 22115 ft | 405 kts | 128° |
| 2026-04-23 13:30 | 54.88465 | 17.84922 | 21708 ft | 401 kts | 128° |
| 2026-04-23 13:30 | 54.86541 | 17.88389 | 21293 ft | 397 kts | 128° |
| 2026-04-23 13:31 | 54.84633 | 17.91821 | 20882 ft | 393 kts | 129° |
| 2026-04-23 13:31 | 54.82741 | 17.95225 | 20489 ft | 389 kts | 129° |
| 2026-04-23 13:31 | 54.80868 | 17.98591 | 20058 ft | 387 kts | 129° |
| 2026-04-23 13:31 | 54.78817 | 18.01613 | 19744 ft | 385 kts | 139° |
| 2026-04-23 13:32 | 54.76696 | 18.04344 | 19485 ft | 377 kts | 139° |
| 2026-04-23 13:32 | 54.74604 | 18.07068 | 19089 ft | 375 kts | 139° |
| 2026-04-23 13:32 | 54.72561 | 18.09749 | 18707 ft | 372 kts | 138° |
| 2026-04-23 13:32 | 54.70509 | 18.12444 | 18324 ft | 369 kts | 139° |
| 2026-04-23 13:33 | 54.68473 | 18.15109 | 17784 ft | 365 kts | 138° |
| 2026-04-23 13:33 | 54.66615 | 18.18021 | 17235 ft | 356 kts | 127° |
| 2026-04-23 13:33 | 54.64977 | 18.21172 | 16813 ft | 350 kts | 127° |
| 2026-04-23 13:33 | 54.63364 | 18.24260 | 16424 ft | 343 kts | 127° |
| 2026-04-23 13:34 | 54.61778 | 18.27291 | 16081 ft | 339 kts | 127° |
| 2026-04-23 13:34 | 54.60205 | 18.30300 | 15720 ft | 338 kts | 127° |
| 2026-04-23 13:34 | 54.58637 | 18.33298 | 15356 ft | 336 kts | 127° |
| 2026-04-23 13:34 | 54.57071 | 18.36287 | 14997 ft | 335 kts | 127° |
| 2026-04-23 13:35 | 54.55511 | 18.39257 | 14628 ft | 334 kts | 127° |
| 2026-04-23 13:35 | 54.53950 | 18.42220 | 14275 ft | 333 kts | 127° |
| 2026-04-23 13:35 | 54.52395 | 18.45166 | 13919 ft | 332 kts | 127° |
| 2026-04-23 13:35 | 54.50845 | 18.48105 | 13532 ft | 331 kts | 127° |
| 2026-04-23 13:36 | 54.49305 | 18.51021 | 13179 ft | 329 kts | 127° |
| 2026-04-23 13:36 | 54.47767 | 18.53926 | 12820 ft | 327 kts | 127° |
| 2026-04-23 13:36 | 54.46241 | 18.56808 | 12467 ft | 325 kts | 128° |
| 2026-04-23 13:36 | 54.44738 | 18.59636 | 12322 ft | 315 kts | 128° |
| 2026-04-23 13:37 | 54.43288 | 18.62377 | 12190 ft | 304 kts | 125° |
| 2026-04-23 13:37 | 54.42160 | 18.65318 | 12053 ft | 288 kts | 109° |
| 2026-04-23 13:37 | 54.41383 | 18.68443 | 11702 ft | 286 kts | 106° |
| 2026-04-23 13:37 | 54.40612 | 18.71561 | 11447 ft | 282 kts | 107° |
| 2026-04-23 13:38 | 54.39834 | 18.74681 | 11133 ft | 283 kts | 107° |
| 2026-04-23 13:38 | 54.39063 | 18.77753 | 10795 ft | 280 kts | 107° |
| 2026-04-23 13:38 | 54.38294 | 18.80810 | 10420 ft | 278 kts | 107° |
| 2026-04-23 13:38 | 54.37530 | 18.83855 | 10062 ft | 277 kts | 107° |
| 2026-04-23 13:39 | 54.36773 | 18.86877 | 9674 ft | 275 kts | 108° |
| 2026-04-23 13:39 | 54.36022 | 18.89874 | 9266 ft | 272 kts | 108° |
| 2026-04-23 13:39 | 54.35278 | 18.92841 | 8794 ft | 270 kts | 108° |
| 2026-04-23 13:39 | 54.34537 | 18.95784 | 8407 ft | 267 kts | 108° |
| 2026-04-23 13:40 | 54.33768 | 18.98648 | 8047 ft | 263 kts | 117° |
| 2026-04-23 13:40 | 54.32452 | 19.00778 | 7705 ft | 263 kts | 154° |
| 2026-04-23 13:40 | 54.30688 | 19.01333 | 7327 ft | 258 kts | 192° |
| 2026-04-23 13:40 | 54.29032 | 19.00372 | 6955 ft | 250 kts | 208° |
| 2026-04-23 13:41 | 54.27481 | 18.99089 | 6582 ft | 243 kts | 221° |
| 2026-04-23 13:41 | 54.26425 | 18.97007 | 6231 ft | 229 kts | 252° |
| 2026-04-23 13:41 | 54.26086 | 18.94443 | 5900 ft | 218 kts | 279° |
| 2026-04-23 13:41 | 54.26433 | 18.91993 | 5619 ft | 211 kts | 301° |
| 2026-04-23 13:42 | 54.27030 | 18.89703 | 5349 ft | 211 kts | 299° |
| 2026-04-23 13:42 | 54.27612 | 18.87397 | 5068 ft | 212 kts | 299° |
| 2026-04-23 13:42 | 54.28194 | 18.85075 | 4778 ft | 213 kts | 299° |
| 2026-04-23 13:42 | 54.28777 | 18.82744 | 4499 ft | 212 kts | 298° |
| 2026-04-23 13:43 | 54.29346 | 18.80456 | 4288 ft | 206 kts | 298° |
| 2026-04-23 13:43 | 54.29905 | 18.78207 | 3982 ft | 204 kts | 298° |
| 2026-04-23 13:43 | 54.30457 | 18.75994 | 3734 ft | 200 kts | 297° |
| 2026-04-23 13:43 | 54.30998 | 18.73827 | 3508 ft | 198 kts | 297° |
| 2026-04-23 13:44 | 54.31533 | 18.71683 | 3262 ft | 193 kts | 298° |
| 2026-04-23 13:44 | 54.32050 | 18.69611 | 3058 ft | 190 kts | 300° |
| 2026-04-23 13:44 | 54.32542 | 18.67623 | 3009 ft | 167 kts | 298° |
| 2026-04-23 13:44 | 54.32964 | 18.65904 | 2999 ft | 148 kts | 298° |
| 2026-04-23 13:45 | 54.33360 | 18.64311 | 3014 ft | 144 kts | 301° |
| 2026-04-23 13:45 | 54.33750 | 18.62752 | 2998 ft | 141 kts | 298° |
| 2026-04-23 13:45 | 54.34136 | 18.61209 | 3022 ft | 139 kts | 298° |
| 2026-04-23 13:45 | 54.34535 | 18.59674 | 2858 ft | 141 kts | 301° |
| 2026-04-23 13:46 | 54.34926 | 18.58173 | 2597 ft | 137 kts | 298° |
| 2026-04-23 13:46 | 54.35281 | 18.56649 | 2166 ft | 139 kts | 298° |
| 2026-04-23 13:46 | 54.35653 | 18.55132 | 1727 ft | 138 kts | 299° |
| 2026-04-23 13:46 | 54.36001 | 18.53639 | 1310 ft | 133 kts | 298° |
| 2026-04-23 13:47 | 54.36362 | 18.52197 | 926 ft | 132 kts | 300° |
| 2026-04-23 13:47 | 54.36732 | 18.50751 | 740 ft | 133 kts | 298° |
| 2026-04-23 13:47 | 54.37096 | 18.49273 | 559 ft | 135 kts | 299° |
| 2026-04-23 13:47 | 54.37459 | 18.47835 | 470 ft | 121 kts | 294° |
| 2026-04-23 13:48 | 54.37719 | 18.46782 | 457 ft | 71 kts | 293° |
| 2026-04-23 13:48 | 54.37852 | 18.46242 | 456 ft | 38 kts | 293° |
| 2026-04-23 13:48 | 54.37958 | 18.45911 | 454 ft | 24 kts | 310° |
| 2026-04-23 13:48 | 54.38063 | 18.45756 | 455 ft | 14 kts | 323° |
| 2026-04-23 13:49 | 54.38132 | 18.45711 | 455 ft | 10 kts | 20° |
| 2026-04-23 13:49 | 54.38134 | 18.45825 | 456 ft | 11 kts | 111° |
| 2026-04-23 13:49 | 54.38106 | 18.45934 | 458 ft | 10 kts | 114° |
| 2026-04-23 13:49 | 54.38108 | 18.46043 | 460 ft | 10 kts | 60° |
| 2026-04-23 13:50 | 54.38167 | 18.46109 | 460 ft | 10 kts | 38° |
| 2026-04-23 13:50 | 54.38163 | 18.46225 | 459 ft | 11 kts | 112° |
| 2026-04-23 13:50 | 54.38133 | 18.46345 | 458 ft | 10 kts | 113° |
| 2026-04-23 13:50 | 54.38104 | 18.46465 | 458 ft | 11 kts | 112° |
| 2026-04-23 13:51 | 54.38098 | 18.46527 | 460 ft | 5 kts | 64° |
| 2026-04-23 13:51 | 54.38124 | 18.46555 | 460 ft | 2 kts | 25° |
| 2026-04-23 13:51 | 54.38130 | 18.46559 | 460 ft | 0 kts | 24° |